Rush Valley, Utah
Current Conditions -  °F | °C
As of 7:53 AM on Thursday 30 Oct 2014 (Local Time) from KSLC Reporting Station
Few Clouds Few Clouds  
Wind Chill: 34°   Ceiling: Unl
Heat Index: 39°   Visibility: 10mi
Dew Point: 29°   Wind: 7mph
Humidity: 67%   Direction: 120°ESE
Pressure: 30.27"   Gusts: NA
Location:  40.36°N, 112.45°W
Report Text: KSLC 301353Z 12006KT 10SM FEW110 FEW200 04/M02 A3027 RMK AO2 SLP241 T00391017
Loading
Personal Weather Stations






























Interactive Weather Map
Tropical Storm Tracking
New forecast layout! Learn more

10-Day Weather Forecast

Advertisements
Track Severe Weather on mobile